Time;durP1;ratioP1;P1;durP2;ratioP2;P2;SDS_P1;SDS_P2;PMS_P1;PMS_P2;Temp;Humidity;BMP_temperature;BMP_pressure;BME280_temperature;BME280_humidity;BME280_pressure;Samples;Min_cycle;Max_cycle;Signal;HPM_P1;HPM_P2
2021/10/15 00:01:35;;;;;;;67.55;39.30;;;;;;;;;;5018815;28;20030;-78
2021/10/15 00:04:03;;;;;;;62.65;37.65;;;;;;;;;;5019135;28;20026;-78
2021/10/15 00:06:29;;;;;;;68.32;37.90;;;;;;;;;;5018694;28;20076;-78
2021/10/15 00:08:55;;;;;;;60.67;37.20;;;;;;;;;;5018732;28;20029;-78
2021/10/15 00:11:21;;;;;;;64.97;37.13;;;;;;;;;;5012292;28;20045;-77
2021/10/15 00:13:47;;;;;;;62.28;36.05;;;;;;;;;;5019072;28;20025;-78
2021/10/15 00:16:13;;;;;;;59.20;35.40;;;;;;;;;;5018720;28;20393;-76
2021/10/15 00:18:39;;;;;;;62.95;36.35;;;;;;;;;;5038522;28;20049;-77
2021/10/15 00:21:05;;;;;;;59.60;35.85;;;;;;;;;;5025032;28;20332;-77
2021/10/15 00:23:31;;;;;;;58.53;36.05;;;;;;;;;;5019201;28;20033;-78
2021/10/15 00:25:57;;;;;;;58.25;35.78;;;;;;;;;;5001223;28;20383;-79
2021/10/15 00:28:23;;;;;;;56.42;35.92;;;;;;;;;;5018505;28;20080;-79
2021/10/15 00:30:49;;;;;;;55.70;34.80;;;;;;;;;;5018362;28;20037;-78
2021/10/15 00:33:15;;;;;;;55.42;35.25;;;;;;;;;;5018775;28;20034;-78
2021/10/15 00:35:41;;;;;;;61.42;35.60;;;;;;;;;;5018294;28;20030;-78
2021/10/15 00:38:07;;;;;;;62.95;37.55;;;;;;;;;;5019910;28;20029;-78
2021/10/15 00:40:33;;;;;;;61.83;37.40;;;;;;;;;;5018686;28;20024;-77
2021/10/15 00:42:59;;;;;;;83.47;48.50;;;;;;;;;;5018681;28;20022;-77
2021/10/15 00:45:28;;;;;;;89.82;50.00;;;;;;;;;;5018544;28;20025;-77
2021/10/15 00:47:54;;;;;;;110.78;59.75;;;;;;;;;;5018124;28;20069;-77
2021/10/15 00:50:20;;;;;;;106.13;56.17;;;;;;;;;;5001139;28;20026;-77
2021/10/15 00:52:47;;;;;;;91.80;52.67;;;;;;;;;;5017959;28;20029;-78
2021/10/15 00:55:13;;;;;;;83.70;48.00;;;;;;;;;;5018361;28;20022;-78
2021/10/15 00:57:39;;;;;;;81.60;46.70;;;;;;;;;;5018315;28;20025;-77
2021/10/15 01:00:05;;;;;;;81.03;46.63;;;;;;;;;;5017078;28;20045;-78
2021/10/15 01:02:32;;;;;;;78.70;44.75;;;;;;;;;;5018341;28;20121;-78
2021/10/15 01:04:58;;;;;;;70.03;41.47;;;;;;;;;;5018006;28;20030;-77
2021/10/15 01:07:24;;;;;;;70.07;41.65;;;;;;;;;;5018070;28;20057;-77
2021/10/15 01:09:51;;;;;;;70.22;41.13;;;;;;;;;;5018066;28;20038;-77
2021/10/15 01:12:17;;;;;;;72.15;41.35;;;;;;;;;;5017523;28;20026;-77
2021/10/15 01:14:43;;;;;;;75.30;44.90;;;;;;;;;;5018001;28;20432;-77
2021/10/15 01:17:09;;;;;;;76.80;44.25;;;;;;;;;;5017875;28;20034;-78
2021/10/15 01:19:35;;;;;;;83.03;47.25;;;;;;;;;;5017785;28;20022;-77
2021/10/15 01:22:06;;;;;;;83.72;47.00;;;;;;;;;;5018140;28;20100;-77
2021/10/15 01:24:32;;;;;;;85.10;48.13;;;;;;;;;;5017910;28;20416;-77
2021/10/15 01:27:08;;;;;;;68.60;41.00;;;;;;;;;;5017919;28;20034;-77
2021/10/15 01:29:34;;;;;;;72.57;43.15;;;;;;;;;;5017488;28;20030;-77
2021/10/15 01:32:00;;;;;;;63.65;38.38;;;;;;;;;;5017436;28;20025;-78
2021/10/15 01:34:26;;;;;;;74.38;42.60;;;;;;;;;;5017690;28;20060;-78
2021/10/15 01:36:52;;;;;;;86.72;45.42;;;;;;;;;;5017804;28;20029;-78
2021/10/15 01:39:18;;;;;;;72.47;41.47;;;;;;;;;;5016348;28;20050;-78
2021/10/15 01:41:45;;;;;;;64.30;37.03;;;;;;;;;;5000714;28;20117;-78
2021/10/15 01:44:11;;;;;;;59.42;33.75;;;;;;;;;;5017168;28;20022;-78
2021/10/15 01:46:37;;;;;;;51.85;31.85;;;;;;;;;;5017524;28;20104;-78
2021/10/15 01:49:03;;;;;;;52.40;32.35;;;;;;;;;;5017000;28;20022;-78
2021/10/15 01:51:29;;;;;;;60.40;34.22;;;;;;;;;;5017279;28;20029;-79
2021/10/15 01:53:55;;;;;;;56.97;32.13;;;;;;;;;;5017630;28;20022;-77
2021/10/15 01:56:21;;;;;;;58.17;33.20;;;;;;;;;;5017338;28;20152;-78
2021/10/15 01:58:47;;;;;;;62.45;35.20;;;;;;;;;;4999541;28;20380;-79
2021/10/15 02:01:13;;;;;;;66.80;36.78;;;;;;;;;;5017004;28;20416;-79
2021/10/15 02:03:39;;;;;;;64.40;34.60;;;;;;;;;;5017588;28;20101;-78
2021/10/15 02:06:43;;;;;;;60.13;33.35;;;;;;;;;;5017547;28;20068;-77
2021/10/15 02:09:09;;;;;;;57.67;31.90;;;;;;;;;;5016875;28;20034;-78
2021/10/15 02:11:35;;;;;;;56.53;31.88;;;;;;;;;;5016530;28;20396;-78
2021/10/15 02:14:01;;;;;;;52.45;31.10;;;;;;;;;;5014179;28;20531;-79
2021/10/15 02:16:27;;;;;;;50.53;29.90;;;;;;;;;;5036829;28;20091;-78
2021/10/15 02:18:53;;;;;;;50.38;28.88;;;;;;;;;;5019317;28;20339;-79
2021/10/15 02:21:20;;;;;;;50.50;28.95;;;;;;;;;;5018211;28;20053;-78
2021/10/15 02:23:46;;;;;;;48.13;28.85;;;;;;;;;;5017194;28;20026;-78
2021/10/15 02:26:18;;;;;;;47.17;28.77;;;;;;;;;;5016093;28;20072;-78
2021/10/15 02:28:44;;;;;;;46.38;27.75;;;;;;;;;;5017090;28;20105;-78
2021/10/15 02:31:10;;;;;;;45.33;28.50;;;;;;;;;;5018799;28;20080;-77
2021/10/15 02:33:36;;;;;;;42.30;27.38;;;;;;;;;;5036002;28;20033;-77
2021/10/15 02:36:03;;;;;;;47.80;28.13;;;;;;;;;;5016976;28;20025;-77
2021/10/15 02:38:29;;;;;;;44.25;26.70;;;;;;;;;;5016709;28;20309;-78
2021/10/15 02:40:55;;;;;;;45.80;27.02;;;;;;;;;;5016304;28;20369;-79
2021/10/15 02:43:21;;;;;;;41.65;26.08;;;;;;;;;;5016475;28;20351;-78
2021/10/15 02:45:47;;;;;;;44.08;27.50;;;;;;;;;;5016785;28;20332;-78
2021/10/15 02:48:13;;;;;;;43.00;27.23;;;;;;;;;;5016690;28;20304;-78
2021/10/15 02:50:40;;;;;;;46.55;27.85;;;;;;;;;;5016717;28;20029;-79
2021/10/15 02:53:06;;;;;;;45.17;26.88;;;;;;;;;;5016401;28;20297;-79
2021/10/15 02:55:32;;;;;;;40.33;25.27;;;;;;;;;;5016843;28;20026;-79
2021/10/15 02:57:58;;;;;;;43.25;26.08;;;;;;;;;;5016277;28;20030;-77
2021/10/15 03:00:24;;;;;;;46.35;26.50;;;;;;;;;;5016947;28;20077;-77
2021/10/15 03:02:50;;;;;;;45.33;26.95;;;;;;;;;;5020524;28;20076;-77
2021/10/15 03:05:16;;;;;;;43.72;26.67;;;;;;;;;;5020115;28;20424;-77
2021/10/15 03:07:42;;;;;;;40.95;25.55;;;;;;;;;;5019815;28;20328;-78
2021/10/15 03:10:08;;;;;;;44.13;26.15;;;;;;;;;;5019600;28;20033;-77
2021/10/15 03:12:35;;;;;;;44.72;25.75;;;;;;;;;;5019592;28;20081;-77
2021/10/15 03:15:01;;;;;;;48.83;26.48;;;;;;;;;;5002850;28;20021;-77
2021/10/15 03:17:27;;;;;;;47.75;27.38;;;;;;;;;;5020065;28;20431;-77
2021/10/15 03:19:53;;;;;;;43.20;26.40;;;;;;;;;;5020561;28;20029;-77
2021/10/15 03:22:19;;;;;;;44.22;27.30;;;;;;;;;;5039972;28;20474;-77
2021/10/15 03:24:45;;;;;;;40.15;26.08;;;;;;;;;;5022037;28;20336;-78
2021/10/15 03:27:11;;;;;;;45.03;26.35;;;;;;;;;;5022040;28;20097;-78
2021/10/15 03:29:37;;;;;;;40.72;26.13;;;;;;;;;;5024928;28;20025;-77
2021/10/15 03:32:03;;;;;;;45.90;26.33;;;;;;;;;;5019412;28;20040;-78
2021/10/15 03:34:30;;;;;;;39.60;24.90;;;;;;;;;;5019869;28;20030;-76
2021/10/15 03:36:56;;;;;;;43.47;27.63;;;;;;;;;;5019904;28;20064;-77
2021/10/15 03:39:22;;;;;;;49.72;28.73;;;;;;;;;;5019570;28;20030;-77
2021/10/15 03:41:48;;;;;;;51.75;28.48;;;;;;;;;;5007617;28;20048;-77
2021/10/15 03:44:14;;;;;;;43.33;26.77;;;;;;;;;;5019827;28;20030;-77
2021/10/15 03:46:40;;;;;;;48.08;28.40;;;;;;;;;;5019582;28;20079;-77
2021/10/15 03:49:06;;;;;;;50.05;28.98;;;;;;;;;;5019718;28;20095;-77
2021/10/15 03:51:32;;;;;;;46.50;27.95;;;;;;;;;;5019701;28;20033;-77
2021/10/15 03:53:58;;;;;;;43.35;26.92;;;;;;;;;;5019203;28;20026;-77
2021/10/15 03:56:24;;;;;;;52.17;28.73;;;;;;;;;;5019267;28;20033;-78
2021/10/15 03:58:50;;;;;;;44.15;28.00;;;;;;;;;;5001283;28;20046;-77
2021/10/15 04:01:16;;;;;;;43.85;26.98;;;;;;;;;;5019467;28;20038;-77
2021/10/15 04:03:42;;;;;;;52.92;30.27;;;;;;;;;;5019374;28;20065;-78
2021/10/15 04:06:08;;;;;;;51.40;30.95;;;;;;;;;;5019462;28;20033;-78
2021/10/15 04:08:35;;;;;;;45.65;29.48;;;;;;;;;;5018853;28;20041;-78
2021/10/15 04:11:01;;;;;;;49.70;29.33;;;;;;;;;;5018805;28;20034;-78
2021/10/15 04:13:27;;;;;;;51.00;29.17;;;;;;;;;;5018367;28;20065;-78
2021/10/15 04:15:53;;;;;;;48.95;29.13;;;;;;;;;;5001886;28;20034;-78
2021/10/15 04:18:19;;;;;;;46.90;28.77;;;;;;;;;;5019133;28;20060;-78
2021/10/15 04:20:45;;;;;;;47.15;28.77;;;;;;;;;;5018849;28;20084;-78
2021/10/15 04:23:12;;;;;;;55.83;29.02;;;;;;;;;;5015594;28;20026;-78
2021/10/15 04:25:38;;;;;;;47.30;28.15;;;;;;;;;;5018962;28;20018;-77
2021/10/15 04:28:04;;;;;;;49.00;28.73;;;;;;;;;;5018886;28;20026;-77
2021/10/15 04:30:30;;;;;;;43.67;27.02;;;;;;;;;;5018898;28;20328;-77
2021/10/15 04:32:56;;;;;;;44.92;26.30;;;;;;;;;;5019023;28;20029;-77
2021/10/15 04:35:22;;;;;;;46.03;27.25;;;;;;;;;;5004732;28;20440;-77
2021/10/15 04:37:48;;;;;;;44.78;27.05;;;;;;;;;;5018814;28;20018;-77
2021/10/15 04:40:14;;;;;;;43.05;25.25;;;;;;;;;;5017908;28;20320;-77
2021/10/15 04:42:40;;;;;;;45.88;26.27;;;;;;;;;;5018376;28;20359;-77
2021/10/15 04:45:07;;;;;;;51.67;29.80;;;;;;;;;;5018543;28;20026;-77
2021/10/15 04:47:33;;;;;;;51.13;30.55;;;;;;;;;;5018717;28;20100;-77
2021/10/15 04:49:59;;;;;;;49.90;29.45;;;;;;;;;;5018335;28;20067;-77
2021/10/15 04:52:25;;;;;;;49.63;30.05;;;;;;;;;;5017254;28;20048;-80
2021/10/15 04:54:51;;;;;;;50.85;29.05;;;;;;;;;;5018094;28;20073;-77
2021/10/15 04:57:17;;;;;;;45.88;27.88;;;;;;;;;;5018175;28;20065;-78
2021/10/15 04:59:43;;;;;;;41.58;25.92;;;;;;;;;;5018109;28;20041;-78
2021/10/15 05:02:09;;;;;;;45.95;28.20;;;;;;;;;;5001079;28;20034;-78
2021/10/15 05:04:35;;;;;;;47.47;25.98;;;;;;;;;;5018473;28;20030;-78
2021/10/15 05:07:01;;;;;;;43.83;26.55;;;;;;;;;;5017734;28;20046;-79
2021/10/15 05:11:54;;;;;;;41.83;25.73;;;;;;;;;;5017817;28;20038;-78
2021/10/15 05:14:20;;;;;;;44.50;26.38;;;;;;;;;;5017047;28;20046;-79
2021/10/15 05:16:46;;;;;;;73.32;34.83;;;;;;;;;;5017586;28;20048;-78
2021/10/15 05:19:12;;;;;;;88.75;39.42;;;;;;;;;;5018157;28;20030;-77
2021/10/15 05:21:39;;;;;;;112.65;44.03;;;;;;;;;;5016846;28;20049;-78
2021/10/15 05:24:05;;;;;;;97.28;41.47;;;;;;;;;;5017348;28;20365;-77
2021/10/15 05:26:31;;;;;;;66.28;32.63;;;;;;;;;;5017578;28;20033;-77
2021/10/15 05:28:57;;;;;;;84.50;39.15;;;;;;;;;;5017841;28;20040;-78
2021/10/15 05:31:23;;;;;;;61.22;31.00;;;;;;;;;;5017691;28;20065;-77
2021/10/15 05:33:49;;;;;;;47.00;27.83;;;;;;;;;;5017430;28;20045;-80
2021/10/15 05:36:15;;;;;;;62.00;38.03;;;;;;;;;;5016764;28;20112;-78
2021/10/15 05:38:41;;;;;;;54.13;33.72;;;;;;;;;;5013651;28;20037;-78
2021/10/15 05:41:07;;;;;;;52.35;31.75;;;;;;;;;;5016995;28;20068;-76
2021/10/15 05:43:33;;;;;;;46.17;29.92;;;;;;;;;;5017012;28;20026;-78
2021/10/15 05:45:59;;;;;;;44.75;28.15;;;;;;;;;;5017004;28;20026;-77
2021/10/15 05:48:25;;;;;;;40.85;27.30;;;;;;;;;;5017664;28;20109;-77
2021/10/15 05:50:51;;;;;;;40.28;25.80;;;;;;;;;;5016898;28;20327;-77
2021/10/15 05:53:19;;;;;;;39.08;25.50;;;;;;;;;;5023552;28;20120;-79
2021/10/15 06:01:05;;;;;;;44.05;27.80;;;;;;;;;;5018521;28;20092;-76
2021/10/15 06:03:33;;;;;;;43.22;28.75;;;;;;;;;;5017154;28;20436;-77
2021/10/15 06:14:43;;;;;;;41.13;24.65;;;;;;;;;;4959616;28;20045;-80
2021/10/15 06:17:16;;;;;;;37.70;23.60;;;;;;;;;;4959733;28;20024;-80
2021/10/15 06:22:14;;;;;;;49.20;28.75;;;;;;;;;;4957015;29;20024;-80
2021/10/15 06:24:40;;;;;;;49.70;29.77;;;;;;;;;;4957098;29;20023;-80
2021/10/15 06:27:06;;;;;;;41.70;27.20;;;;;;;;;;4956948;29;20144;-80
2021/10/15 06:29:32;;;;;;;40.45;24.58;;;;;;;;;;4956827;29;20031;-80
2021/10/15 06:31:58;;;;;;;39.22;25.85;;;;;;;;;;4956786;29;20035;-80
2021/10/15 06:34:24;;;;;;;36.80;23.98;;;;;;;;;;4957175;29;20031;-79
2021/10/15 06:36:51;;;;;;;42.28;28.05;;;;;;;;;;4960007;28;20079;-79
2021/10/15 06:39:17;;;;;;;41.58;26.42;;;;;;;;;;4960769;29;20031;-80
2021/10/15 06:41:43;;;;;;;41.33;27.33;;;;;;;;;;4960792;29;20040;-80
2021/10/15 06:44:09;;;;;;;46.78;29.33;;;;;;;;;;4960722;29;20056;-79
2021/10/15 06:46:35;;;;;;;40.45;26.42;;;;;;;;;;4967424;28;20083;-80
2021/10/15 06:49:01;;;;;;;50.08;29.08;;;;;;;;;;5020850;28;20396;-80
2021/10/15 06:51:27;;;;;;;46.10;27.77;;;;;;;;;;5020802;28;20316;-80
2021/10/15 06:53:53;;;;;;;42.42;26.52;;;;;;;;;;5021168;28;20355;-79
2021/10/15 06:56:19;;;;;;;38.65;24.15;;;;;;;;;;5002958;28;20053;-80
2021/10/15 06:58:45;;;;;;;37.15;22.80;;;;;;;;;;5020627;28;20022;-80
2021/10/15 07:01:11;;;;;;;39.83;23.63;;;;;;;;;;5002886;28;20463;-80
2021/10/15 07:03:37;;;;;;;39.67;23.15;;;;;;;;;;5002698;28;20432;-80
2021/10/15 07:06:03;;;;;;;40.03;24.65;;;;;;;;;;5020556;28;20033;-80
2021/10/15 07:08:29;;;;;;;36.50;22.83;;;;;;;;;;5003034;28;20033;-79
2021/10/15 07:10:56;;;;;;;34.70;23.25;;;;;;;;;;5020562;28;20030;-79
2021/10/15 07:13:22;;;;;;;37.53;22.77;;;;;;;;;;5020387;28;20025;-80
2021/10/15 07:15:48;;;;;;;36.35;23.33;;;;;;;;;;5003081;28;20065;-80
2021/10/15 07:18:14;;;;;;;37.05;22.88;;;;;;;;;;5020405;28;20294;-79
2021/10/15 07:20:42;;;;;;;37.67;23.85;;;;;;;;;;5020029;28;20018;-80
2021/10/15 07:23:09;;;;;;;37.45;23.52;;;;;;;;;;5020320;28;20045;-80
2021/10/15 07:25:35;;;;;;;37.50;23.83;;;;;;;;;;5020403;28;20076;-80
2021/10/15 07:28:01;;;;;;;40.75;24.55;;;;;;;;;;5020051;28;20408;-80
2021/10/15 07:30:27;;;;;;;42.13;26.23;;;;;;;;;;5020208;28;20030;-81
2021/10/15 07:32:54;;;;;;;41.83;25.95;;;;;;;;;;5020091;28;20049;-81
2021/10/15 07:35:20;;;;;;;40.70;26.48;;;;;;;;;;5020066;28;20026;-80
2021/10/15 07:37:46;;;;;;;41.58;26.05;;;;;;;;;;5019855;28;20024;-80
2021/10/15 07:40:12;;;;;;;40.35;25.08;;;;;;;;;;5020237;28;20022;-80
2021/10/15 07:42:39;;;;;;;44.28;25.80;;;;;;;;;;5002532;28;20037;-79
2021/10/15 07:45:06;;;;;;;39.10;23.85;;;;;;;;;;5001780;28;20069;-80
2021/10/15 07:47:32;;;;;;;35.88;22.48;;;;;;;;;;5018591;28;20044;-80
2021/10/15 07:49:58;;;;;;;39.78;23.55;;;;;;;;;;5019596;28;20026;-80
2021/10/15 07:52:24;;;;;;;36.90;24.10;;;;;;;;;;5019692;28;20026;-80
2021/10/15 07:54:50;;;;;;;44.22;24.35;;;;;;;;;;5019573;28;20022;-80
2021/10/15 07:57:16;;;;;;;39.20;23.67;;;;;;;;;;5019623;28;20065;-80
2021/10/15 07:59:43;;;;;;;38.72;24.27;;;;;;;;;;5018949;28;20340;-79
2021/10/15 08:02:09;;;;;;;43.42;25.20;;;;;;;;;;5001880;28;20034;-80
2021/10/15 08:04:35;;;;;;;44.53;27.63;;;;;;;;;;5001766;28;20026;-80
2021/10/15 08:07:02;;;;;;;39.42;24.13;;;;;;;;;;5019178;28;20116;-79
2021/10/15 08:09:29;;;;;;;40.08;24.88;;;;;;;;;;5002023;28;20061;-79
2021/10/15 08:11:55;;;;;;;39.20;24.15;;;;;;;;;;5002104;28;20037;-80
2021/10/15 08:14:22;;;;;;;35.53;23.05;;;;;;;;;;5019264;28;20022;-79
2021/10/15 08:16:49;;;;;;;42.90;26.58;;;;;;;;;;5019207;28;20363;-79
2021/10/15 08:19:15;;;;;;;35.88;23.35;;;;;;;;;;5001823;28;20029;-80
2021/10/15 08:21:41;;;;;;;37.15;22.83;;;;;;;;;;5019297;28;20029;-80
2021/10/15 08:24:09;;;;;;;33.95;22.80;;;;;;;;;;5001779;28;20030;-80
2021/10/15 08:26:35;;;;;;;34.65;22.08;;;;;;;;;;5019019;28;20037;-80
2021/10/15 08:29:01;;;;;;;33.53;21.52;;;;;;;;;;5019090;28;20145;-80
2021/10/15 08:31:28;;;;;;;34.80;22.58;;;;;;;;;;5018988;28;20026;-80
2021/10/15 08:33:54;;;;;;;32.90;21.70;;;;;;;;;;5018847;28;20029;-80
2021/10/15 08:36:22;;;;;;;33.28;21.77;;;;;;;;;;5001056;28;20030;-80
2021/10/15 08:38:49;;;;;;;32.15;21.98;;;;;;;;;;5001438;28;20022;-80
2021/10/15 08:41:18;;;;;;;31.80;21.25;;;;;;;;;;5000891;28;20041;-80
2021/10/15 08:43:44;;;;;;;31.85;21.30;;;;;;;;;;5001363;28;20034;-80
2021/10/15 08:46:10;;;;;;;33.10;21.77;;;;;;;;;;5000942;28;20068;-80
2021/10/15 08:48:38;;;;;;;32.30;21.13;;;;;;;;;;5018912;28;20289;-80
2021/10/15 08:51:05;;;;;;;30.95;20.30;;;;;;;;;;5018391;28;20409;-80
2021/10/15 08:53:31;;;;;;;32.80;20.13;;;;;;;;;;5018614;28;20030;-80
2021/10/15 08:55:57;;;;;;;32.97;21.00;;;;;;;;;;5001151;28;20061;-79
2021/10/15 08:58:40;;;;;;;29.40;20.33;;;;;;;;;;5017706;28;20026;-80
2021/10/15 09:01:06;;;;;;;30.95;20.58;;;;;;;;;;5018405;28;20049;-80
2021/10/15 09:03:32;;;;;;;30.25;20.58;;;;;;;;;;5018324;28;20404;-79
2021/10/15 09:06:00;;;;;;;28.13;20.05;;;;;;;;;;5018341;28;20396;-79
2021/10/15 09:08:27;;;;;;;66.28;40.80;;;;;;;;;;5018385;28;20072;-83
2021/10/15 09:10:53;;;;;;;37.95;23.75;;;;;;;;;;5018462;28;20034;-83
2021/10/15 09:13:21;;;;;;;43.10;24.98;;;;;;;;;;5018519;28;20045;-83
2021/10/15 09:15:47;;;;;;;36.63;23.42;;;;;;;;;;5018282;28;20109;-83
2021/10/15 09:18:15;;;;;;;38.33;23.05;;;;;;;;;;5018367;28;20018;-83
2021/10/15 09:20:41;;;;;;;33.55;21.85;;;;;;;;;;5018460;28;20044;-83
2021/10/15 09:23:07;;;;;;;35.70;22.10;;;;;;;;;;5000758;28;20371;-83
2021/10/15 09:25:38;;;;;;;33.92;23.17;;;;;;;;;;5000522;28;20025;-83
2021/10/15 09:28:15;;;;;;;36.90;23.05;;;;;;;;;;5000693;28;20320;-83
2021/10/15 09:30:42;;;;;;;34.17;23.35;;;;;;;;;;5000627;28;20021;-83
2021/10/15 09:33:08;;;;;;;38.63;22.75;;;;;;;;;;5000751;28;20036;-83
2021/10/15 09:35:34;;;;;;;32.47;21.13;;;;;;;;;;5017924;28;20022;-83
2021/10/15 09:38:03;;;;;;;31.15;20.45;;;;;;;;;;5017734;28;20034;-83
2021/10/15 09:40:31;;;;;;;41.17;22.85;;;;;;;;;;5018097;28;20486;-83
2021/10/15 09:42:59;;;;;;;34.22;21.58;;;;;;;;;;5017835;28;20022;-83
2021/10/15 09:45:32;;;;;;;32.90;21.15;;;;;;;;;;5017766;28;20021;-83
2021/10/15 09:48:00;;;;;;;25.98;17.17;;;;;;;;;;5017980;28;20025;-83
2021/10/15 09:50:30;;;;;;;25.27;16.20;;;;;;;;;;5000101;28;20034;-83
2021/10/15 09:52:57;;;;;;;21.80;15.68;;;;;;;;;;5017715;28;20412;-83
2021/10/15 09:55:31;;;;;;;23.27;16.25;;;;;;;;;;5017673;28;20101;-83
2021/10/15 09:58:09;;;;;;;24.77;13.98;;;;;;;;;;5017455;28;20018;-83
2021/10/15 10:00:35;;;;;;;19.63;13.40;;;;;;;;;;5017491;28;20073;-83
2021/10/15 10:03:02;;;;;;;16.52;11.80;;;;;;;;;;5000324;28;20018;-83
2021/10/15 10:05:28;;;;;;;18.77;12.57;;;;;;;;;;5000093;28;20038;-83
2021/10/15 10:07:55;;;;;;;17.33;11.60;;;;;;;;;;5017640;28;20033;-83
2021/10/15 10:10:23;;;;;;;19.88;12.30;;;;;;;;;;5016912;28;20030;-83
2021/10/15 10:12:49;;;;;;;19.40;13.27;;;;;;;;;;5017519;28;20034;-83
2021/10/15 10:15:17;;;;;;;18.10;13.23;;;;;;;;;;5017464;28;20044;-83
2021/10/15 10:18:16;;;;;;;19.58;13.60;;;;;;;;;;4999715;28;20034;-83
2021/10/15 10:20:48;;;;;;;25.38;14.20;;;;;;;;;;5017452;28;20042;-83
2021/10/15 10:23:19;;;;;;;26.77;15.45;;;;;;;;;;5017267;28;20030;-83
2021/10/15 10:25:45;;;;;;;24.88;14.63;;;;;;;;;;4999756;28;20025;-83
2021/10/15 10:28:13;;;;;;;24.73;15.48;;;;;;;;;;5017363;28;20022;-83
2021/10/15 10:30:41;;;;;;;32.75;15.30;;;;;;;;;;4999825;28;20026;-82
2021/10/15 10:33:07;;;;;;;21.77;14.45;;;;;;;;;;4999973;28;20037;-82
2021/10/15 10:35:33;;;;;;;16.90;12.30;;;;;;;;;;5017263;28;20344;-82
2021/10/15 10:38:18;;;;;;;15.93;11.50;;;;;;;;;;5017162;28;20030;-83
2021/10/15 10:41:02;;;;;;;26.58;17.25;;;;;;;;;;4999409;28;20073;-82
2021/10/15 10:43:30;;;;;;;15.63;11.80;;;;;;;;;;4999760;28;20029;-82
2021/10/15 10:46:11;;;;;;;18.90;12.93;;;;;;;;;;5017197;28;20416;-83
2021/10/15 10:48:49;;;;;;;14.85;11.18;;;;;;;;;;4999733;28;20412;-82
2021/10/15 10:51:15;;;;;;;12.57;9.50;;;;;;;;;;5017023;28;20036;-82
2021/10/15 10:54:09;;;;;;;12.85;9.50;;;;;;;;;;4999125;28;20113;-81
2021/10/15 10:56:38;;;;;;;14.70;10.50;;;;;;;;;;5017028;28;20057;-82
2021/10/15 10:59:22;;;;;;;13.27;10.07;;;;;;;;;;4999426;28;20375;-82
2021/10/15 11:02:00;;;;;;;12.20;9.70;;;;;;;;;;5016923;28;20038;-82
2021/10/15 11:04:32;;;;;;;9.75;7.70;;;;;;;;;;5016758;28;20030;-82
2021/10/15 11:06:58;;;;;;;;;;;;;;;;;;5017435;28;20065;-82
2021/10/15 11:09:44;;;;;;;14.48;9.02;;;;;;;;;;4999668;28;20310;-82
2021/10/15 11:12:14;;;;;;;12.38;8.52;;;;;;;;;;4999501;28;20044;-83
2021/10/15 11:14:56;;;;;;;10.73;8.63;;;;;;;;;;5016907;28;20025;-83
2021/10/15 11:17:33;;;;;;;11.80;8.75;;;;;;;;;;5016909;28;20152;-83
2021/10/15 11:20:17;;;;;;;12.52;9.38;;;;;;;;;;5016853;28;20416;-83
2021/10/15 11:22:48;;;;;;;13.23;8.60;;;;;;;;;;5019682;28;20034;-83
2021/10/15 11:25:15;;;;;;;10.65;7.88;;;;;;;;;;5020605;28;20021;-83
2021/10/15 11:27:41;;;;;;;11.68;7.82;;;;;;;;;;5020605;28;20045;-82
2021/10/15 11:30:09;;;;;;;22.38;10.98;;;;;;;;;;5020401;28;20404;-82
2021/10/15 11:32:39;;;;;;;11.57;8.68;;;;;;;;;;5020104;28;20029;-82
2021/10/15 11:35:09;;;;;;;11.00;8.05;;;;;;;;;;5020298;28;20072;-83
2021/10/15 11:37:47;;;;;;;11.75;8.73;;;;;;;;;;5002450;28;20034;-82
2021/10/15 11:40:18;;;;;;;11.98;8.55;;;;;;;;;;5020234;28;20432;-83
2021/10/15 11:42:44;;;;;;;11.90;8.93;;;;;;;;;;5020229;28;20068;-82
2021/10/15 11:45:25;;;;;;;12.57;9.93;;;;;;;;;;5020133;28;20033;-83
2021/10/15 11:48:04;;;;;;;13.47;9.13;;;;;;;;;;5020174;28;20077;-82
2021/10/15 11:50:36;;;;;;;10.40;7.35;;;;;;;;;;5002209;28;20042;-82
2021/10/15 11:53:02;;;;;;;10.45;6.78;;;;;;;;;;5019867;28;20068;-82
2021/10/15 11:55:34;;;;;;;10.93;7.45;;;;;;;;;;5019778;28;20041;-82
2021/10/15 11:58:17;;;;;;;11.20;7.45;;;;;;;;;;5019589;28;20081;-82
2021/10/15 12:01:02;;;;;;;9.35;7.45;;;;;;;;;;5019593;28;20528;-82
2021/10/15 12:03:32;;;;;;;10.93;7.63;;;;;;;;;;5001907;28;20038;-82
2021/10/15 12:06:10;;;;;;;14.10;9.13;;;;;;;;;;5019704;28;20076;-82
2021/10/15 12:08:37;;;;;;;9.18;7.10;;;;;;;;;;5019470;28;20037;-82
2021/10/15 12:11:04;;;;;;;11.27;7.80;;;;;;;;;;5019589;28;20097;-82
2021/10/15 12:13:30;;;;;;;14.30;10.07;;;;;;;;;;5001794;28;20040;-83
2021/10/15 12:15:56;;;;;;;14.90;10.00;;;;;;;;;;5019446;28;20022;-83
2021/10/15 12:18:30;;;;;;;14.85;10.27;;;;;;;;;;5019371;28;20022;-82
2021/10/15 12:21:11;;;;;;;31.30;19.10;;;;;;;;;;5002075;28;20049;-83
2021/10/15 12:23:53;;;;;;;22.70;13.60;;;;;;;;;;5001618;28;20081;-82
2021/10/15 12:26:23;;;;;;;38.60;11.77;;;;;;;;;;5019413;28;20029;-82
2021/10/15 12:28:49;;;;;;;21.35;12.52;;;;;;;;;;5019274;28;20026;-82
2021/10/15 12:31:29;;;;;;;19.95;8.25;;;;;;;;;;5018958;28;20026;-82
2021/10/15 12:34:09;;;;;;;14.68;9.98;;;;;;;;;;5018511;28;20064;-82
2021/10/15 12:36:36;;;;;;;19.90;12.68;;;;;;;;;;5001797;28;20026;-82
2021/10/15 12:39:15;;;;;;;19.35;13.48;;;;;;;;;;5019260;28;20049;-82
2021/10/15 12:41:42;;;;;;;16.55;11.45;;;;;;;;;;5018883;28;20049;-82
2021/10/15 12:44:21;;;;;;;21.02;12.60;;;;;;;;;;5018973;28;20030;-82
2021/10/15 12:46:58;;;;;;;22.50;15.25;;;;;;;;;;5019021;28;20033;-81
2021/10/15 12:49:24;;;;;;;21.33;14.95;;;;;;;;;;5019289;28;20324;-82
2021/10/15 12:51:50;;;;;;;18.88;13.52;;;;;;;;;;5001263;28;20371;-82
2021/10/15 12:54:35;;;;;;;16.45;12.30;;;;;;;;;;5018630;28;20030;-81
2021/10/15 12:57:15;;;;;;;15.30;10.57;;;;;;;;;;5001160;28;20045;-81
2021/10/15 12:59:41;;;;;;;16.23;9.75;;;;;;;;;;4990954;28;20429;-82
2021/10/15 13:02:09;;;;;;;19.85;12.63;;;;;;;;;;4981657;28;20329;-81
2021/10/15 13:04:36;;;;;;;17.63;12.57;;;;;;;;;;4998735;28;20030;-81
2021/10/15 13:07:03;;;;;;;21.48;12.82;;;;;;;;;;4998870;28;20037;-81
2021/10/15 13:09:31;;;;;;;26.60;12.85;;;;;;;;;;4998921;28;20037;-82
2021/10/15 13:12:00;;;;;;;26.05;12.52;;;;;;;;;;4998443;28;20026;-82
2021/10/15 13:14:27;;;;;;;18.50;12.20;;;;;;;;;;4998788;28;20109;-82
2021/10/15 13:16:53;;;;;;;17.48;11.75;;;;;;;;;;4981367;28;20022;-82
2021/10/15 13:19:19;;;;;;;15.77;10.68;;;;;;;;;;4998769;28;20332;-82
2021/10/15 13:21:45;;;;;;;16.33;10.13;;;;;;;;;;4981379;28;20031;-82
2021/10/15 13:24:11;;;;;;;14.43;9.43;;;;;;;;;;4998147;28;20026;-82
2021/10/15 13:26:38;;;;;;;17.08;10.15;;;;;;;;;;4998439;28;20128;-82
2021/10/15 13:29:04;;;;;;;17.27;10.68;;;;;;;;;;4998477;28;20154;-82
2021/10/15 13:31:31;;;;;;;20.00;10.18;;;;;;;;;;4998249;28;20027;-81
2021/10/15 13:33:57;;;;;;;12.48;9.80;;;;;;;;;;4998418;28;20053;-82
2021/10/15 13:36:24;;;;;;;16.02;9.60;;;;;;;;;;4997905;28;20050;-81
2021/10/15 13:38:50;;;;;;;14.88;9.93;;;;;;;;;;4980542;28;20121;-81
2021/10/15 13:41:21;;;;;;;23.50;12.02;;;;;;;;;;4981087;28;20061;-81
2021/10/15 13:51:42;;;;;;;22.00;14.27;;;;;;;;;;4998119;28;20447;-82
2021/10/15 13:54:11;;;;;;;20.85;13.32;;;;;;;;;;4980852;28;20417;-82
2021/10/15 13:56:37;;;;;;;17.40;11.63;;;;;;;;;;4980960;28;20470;-82
2021/10/15 13:59:14;;;;;;;16.98;11.57;;;;;;;;;;5002968;28;20042;-83
2021/10/15 14:01:42;;;;;;;18.80;11.77;;;;;;;;;;5017507;28;20034;-84
2021/10/15 14:04:16;;;;;;;19.70;12.07;;;;;;;;;;4999532;28;20057;-79
2021/10/15 14:06:42;;;;;;;20.80;12.35;;;;;;;;;;5017628;28;20030;-81
2021/10/15 14:09:08;;;;;;;17.65;12.45;;;;;;;;;;5017624;28;20026;-82
2021/10/15 14:11:35;;;;;;;21.98;14.05;;;;;;;;;;5017431;28;20065;-82
2021/10/15 14:14:02;;;;;;;23.50;14.50;;;;;;;;;;5017392;28;20048;-82
2021/10/15 14:16:28;;;;;;;26.42;15.13;;;;;;;;;;5017287;28;20019;-81
2021/10/15 14:18:55;;;;;;;26.77;16.95;;;;;;;;;;5017356;28;20438;-82
2021/10/15 14:21:21;;;;;;;37.42;20.60;;;;;;;;;;5017371;28;20060;-82
2021/10/15 14:23:47;;;;;;;46.83;29.85;;;;;;;;;;5017252;28;20293;-81
2021/10/15 14:26:13;;;;;;;51.88;31.75;;;;;;;;;;5017198;28;20026;-81
2021/10/15 14:28:39;;;;;;;50.97;31.65;;;;;;;;;;5017139;28;20038;-81
2021/10/15 14:31:05;;;;;;;53.35;33.33;;;;;;;;;;5016901;28;20028;-81
2021/10/15 14:33:31;;;;;;;59.65;35.40;;;;;;;;;;5017075;28;20434;-81
2021/10/15 14:35:57;;;;;;;91.57;56.72;;;;;;;;;;5017320;28;20031;-81
2021/10/15 14:38:23;;;;;;;104.82;66.25;;;;;;;;;;4999291;28;20038;-81
2021/10/15 14:40:50;;;;;;;106.43;62.58;;;;;;;;;;5016932;28;20030;-82
2021/10/15 14:43:16;;;;;;;183.50;128.93;;;;;;;;;;4999350;28;20030;-82
2021/10/15 14:45:42;;;;;;;322.70;219.45;;;;;;;;;;5016894;28;20109;-81
2021/10/15 14:48:08;;;;;;;300.05;170.68;;;;;;;;;;5016960;28;20018;-81
2021/10/15 14:50:34;;;;;;;337.63;172.73;;;;;;;;;;5016991;28;20073;-81